sensor_id;sensor_type;location;lat;lon;timestamp;temperature;humidity
53802;DHT22;39709;53.334;6.534;2022-08-19T00:01:13;15.90;37.40
53802;DHT22;39709;53.334;6.534;2022-08-19T00:03:39;15.80;32.70
53802;DHT22;39709;53.334;6.534;2022-08-19T00:06:05;15.90;30.20
53802;DHT22;39709;53.334;6.534;2022-08-19T00:08:30;15.90;27.10
53802;DHT22;39709;53.334;6.534;2022-08-19T00:10:56;15.80;22.40
53802;DHT22;39709;53.334;6.534;2022-08-19T00:13:23;15.70;27.80
53802;DHT22;39709;53.334;6.534;2022-08-19T00:15:48;15.70;30.00
53802;DHT22;39709;53.334;6.534;2022-08-19T00:18:14;15.60;28.30
53802;DHT22;39709;53.334;6.534;2022-08-19T00:20:40;15.60;35.60
53802;DHT22;39709;53.334;6.534;2022-08-19T00:23:06;15.70;30.20
53802;DHT22;39709;53.334;6.534;2022-08-19T00:25:32;15.50;28.80
53802;DHT22;39709;53.334;6.534;2022-08-19T00:27:59;15.50;42.20
53802;DHT22;39709;53.334;6.534;2022-08-19T00:30:25;15.70;33.10
53802;DHT22;39709;53.334;6.534;2022-08-19T00:32:53;15.70;36.30
53802;DHT22;39709;53.334;6.534;2022-08-19T00:35:21;15.60;39.30
53802;DHT22;39709;53.334;6.534;2022-08-19T00:37:48;15.60;28.80
53802;DHT22;39709;53.334;6.534;2022-08-19T00:40:15;15.60;31.90
53802;DHT22;39709;53.334;6.534;2022-08-19T00:42:44;15.60;29.40
53802;DHT22;39709;53.334;6.534;2022-08-19T00:45:17;15.50;32.80
53802;DHT22;39709;53.334;6.534;2022-08-19T00:47:44;15.60;26.20
53802;DHT22;39709;53.334;6.534;2022-08-19T00:50:12;15.50;28.30
53802;DHT22;39709;53.334;6.534;2022-08-19T00:52:42;15.50;28.60
53802;DHT22;39709;53.334;6.534;2022-08-19T00:55:32;15.60;39.50
53802;DHT22;39709;53.334;6.534;2022-08-19T00:58:04;15.60;39.50
53802;DHT22;39709;53.334;6.534;2022-08-19T01:00:31;15.40;36.10
53802;DHT22;39709;53.334;6.534;2022-08-19T01:03:06;15.50;39.40
53802;DHT22;39709;53.334;6.534;2022-08-19T01:05:32;15.50;37.10
53802;DHT22;39709;53.334;6.534;2022-08-19T01:08:00;15.50;43.90
53802;DHT22;39709;53.334;6.534;2022-08-19T01:10:29;15.50;50.10
53802;DHT22;39709;53.334;6.534;2022-08-19T01:12:57;15.30;55.80
53802;DHT22;39709;53.334;6.534;2022-08-19T01:15:28;15.30;47.10
53802;DHT22;39709;53.334;6.534;2022-08-19T01:17:55;15.20;49.80
53802;DHT22;39709;53.334;6.534;2022-08-19T01:20:23;15.20;57.30
53802;DHT22;39709;53.334;6.534;2022-08-19T01:22:52;15.10;66.60
53802;DHT22;39709;53.334;6.534;2022-08-19T01:25:22;15.00;62.80
53802;DHT22;39709;53.334;6.534;2022-08-19T01:27:50;15.10;72.90
53802;DHT22;39709;53.334;6.534;2022-08-19T01:30:27;14.90;70.50
53802;DHT22;39709;53.334;6.534;2022-08-19T01:32:54;15.10;74.00
53802;DHT22;39709;53.334;6.534;2022-08-19T01:35:21;15.00;67.30
53802;DHT22;39709;53.334;6.534;2022-08-19T01:37:57;15.10;58.90
53802;DHT22;39709;53.334;6.534;2022-08-19T01:40:27;15.10;52.90
53802;DHT22;39709;53.334;6.534;2022-08-19T01:42:54;15.00;55.10
53802;DHT22;39709;53.334;6.534;2022-08-19T01:45:22;15.10;69.80
53802;DHT22;39709;53.334;6.534;2022-08-19T01:47:49;15.10;72.70
53802;DHT22;39709;53.334;6.534;2022-08-19T01:50:15;15.00;74.70
53802;DHT22;39709;53.334;6.534;2022-08-19T01:52:43;15.10;68.00
53802;DHT22;39709;53.334;6.534;2022-08-19T01:55:13;15.10;67.30
53802;DHT22;39709;53.334;6.534;2022-08-19T01:57:41;15.10;68.10
53802;DHT22;39709;53.334;6.534;2022-08-19T02:00:12;15.00;67.10
53802;DHT22;39709;53.334;6.534;2022-08-19T02:02:40;15.10;85.80
53802;DHT22;39709;53.334;6.534;2022-08-19T02:05:06;15.00;91.50
53802;DHT22;39709;53.334;6.534;2022-08-19T02:07:36;15.10;93.00
53802;DHT22;39709;53.334;6.534;2022-08-19T02:10:09;15.10;90.40
53802;DHT22;39709;53.334;6.534;2022-08-19T02:12:35;15.00;98.30
53802;DHT22;39709;53.334;6.534;2022-08-19T02:15:01;15.10;99.90
53802;DHT22;39709;53.334;6.534;2022-08-19T02:17:28;15.10;95.20
53802;DHT22;39709;53.334;6.534;2022-08-19T02:19:55;14.80;91.90
53802;DHT22;39709;53.334;6.534;2022-08-19T02:22:22;15.00;95.40
53802;DHT22;39709;53.334;6.534;2022-08-19T02:24:48;14.90;84.60
53802;DHT22;39709;53.334;6.534;2022-08-19T02:27:15;14.90;83.30
53802;DHT22;39709;53.334;6.534;2022-08-19T02:29:41;14.90;84.10
53802;DHT22;39709;53.334;6.534;2022-08-19T02:32:07;14.70;91.40
53802;DHT22;39709;53.334;6.534;2022-08-19T02:34:33;14.80;93.70
53802;DHT22;39709;53.334;6.534;2022-08-19T02:36:59;14.70;97.00
53802;DHT22;39709;53.334;6.534;2022-08-19T02:39:25;14.70;99.90
53802;DHT22;39709;53.334;6.534;2022-08-19T02:41:51;14.90;99.90
53802;DHT22;39709;53.334;6.534;2022-08-19T02:44:18;14.70;99.90
53802;DHT22;39709;53.334;6.534;2022-08-19T02:46:46;14.90;99.90
53802;DHT22;39709;53.334;6.534;2022-08-19T02:49:12;14.90;99.90
53802;DHT22;39709;53.334;6.534;2022-08-19T02:51:40;14.70;99.90
53802;DHT22;39709;53.334;6.534;2022-08-19T02:54:07;14.60;99.90
53802;DHT22;39709;53.334;6.534;2022-08-19T02:56:35;14.70;99.90
53802;DHT22;39709;53.334;6.534;2022-08-19T02:59:02;14.60;99.90
53802;DHT22;39709;53.334;6.534;2022-08-19T03:01:32;14.80;99.90
53802;DHT22;39709;53.334;6.534;2022-08-19T03:04:00;14.80;99.90
53802;DHT22;39709;53.334;6.534;2022-08-19T03:06:26;14.80;99.90
53802;DHT22;39709;53.334;6.534;2022-08-19T03:08:52;14.50;99.90
53802;DHT22;39709;53.334;6.534;2022-08-19T03:11:27;14.80;99.90
53802;DHT22;39709;53.334;6.534;2022-08-19T03:13:54;14.60;99.90
53802;DHT22;39709;53.334;6.534;2022-08-19T03:16:24;14.70;99.90
53802;DHT22;39709;53.334;6.534;2022-08-19T03:18:51;14.60;99.90
53802;DHT22;39709;53.334;6.534;2022-08-19T03:21:19;14.50;99.90
53802;DHT22;39709;53.334;6.534;2022-08-19T03:23:45;14.70;99.90
53802;DHT22;39709;53.334;6.534;2022-08-19T03:26:11;14.50;99.90
53802;DHT22;39709;53.334;6.534;2022-08-19T03:28:37;14.40;99.90
53802;DHT22;39709;53.334;6.534;2022-08-19T03:31:10;14.50;99.90
53802;DHT22;39709;53.334;6.534;2022-08-19T03:33:37;14.60;99.90
53802;DHT22;39709;53.334;6.534;2022-08-19T03:38:45;14.40;99.90
53802;DHT22;39709;53.334;6.534;2022-08-19T03:41:19;14.50;99.90
53802;DHT22;39709;53.334;6.534;2022-08-19T03:43:46;14.60;99.90
53802;DHT22;39709;53.334;6.534;2022-08-19T03:46:24;14.60;99.90
53802;DHT22;39709;53.334;6.534;2022-08-19T03:48:52;14.60;99.90
53802;DHT22;39709;53.334;6.534;2022-08-19T03:51:24;14.30;99.90
53802;DHT22;39709;53.334;6.534;2022-08-19T03:53:51;14.50;99.90
53802;DHT22;39709;53.334;6.534;2022-08-19T03:56:18;14.50;99.90
53802;DHT22;39709;53.334;6.534;2022-08-19T03:58:44;14.30;99.90
53802;DHT22;39709;53.334;6.534;2022-08-19T04:01:19;14.30;99.90
53802;DHT22;39709;53.334;6.534;2022-08-19T04:03:46;14.30;99.90
53802;DHT22;39709;53.334;6.534;2022-08-19T04:08:41;14.30;99.90
53802;DHT22;39709;53.334;6.534;2022-08-19T04:11:15;14.30;99.90
53802;DHT22;39709;53.334;6.534;2022-08-19T04:13:41;14.20;99.90
53802;DHT22;39709;53.334;6.534;2022-08-19T04:16:09;14.00;99.90
53802;DHT22;39709;53.334;6.534;2022-08-19T04:18:36;14.20;99.90
53802;DHT22;39709;53.334;6.534;2022-08-19T04:21:04;14.00;99.90
53802;DHT22;39709;53.334;6.534;2022-08-19T04:23:30;14.20;99.90
53802;DHT22;39709;53.334;6.534;2022-08-19T04:25:56;14.10;99.90
53802;DHT22;39709;53.334;6.534;2022-08-19T04:28:23;13.90;99.90
53802;DHT22;39709;53.334;6.534;2022-08-19T04:30:51;14.10;99.90
53802;DHT22;39709;53.334;6.534;2022-08-19T04:33:20;13.90;99.90
53802;DHT22;39709;53.334;6.534;2022-08-19T04:35:48;14.00;99.90
53802;DHT22;39709;53.334;6.534;2022-08-19T04:38:16;14.00;99.90
53802;DHT22;39709;53.334;6.534;2022-08-19T04:40:47;13.90;99.90
53802;DHT22;39709;53.334;6.534;2022-08-19T04:43:33;14.00;99.90
53802;DHT22;39709;53.334;6.534;2022-08-19T04:46:08;13.70;99.90
53802;DHT22;39709;53.334;6.534;2022-08-19T04:48:35;13.90;99.90
53802;DHT22;39709;53.334;6.534;2022-08-19T04:51:01;13.80;99.90
53802;DHT22;39709;53.334;6.534;2022-08-19T04:53:28;13.70;99.90
53802;DHT22;39709;53.334;6.534;2022-08-19T04:55:59;13.60;99.90
53802;DHT22;39709;53.334;6.534;2022-08-19T04:58:27;13.60;99.90
53802;DHT22;39709;53.334;6.534;2022-08-19T05:00:54;13.70;99.90
53802;DHT22;39709;53.334;6.534;2022-08-19T05:03:20;13.90;99.90
53802;DHT22;39709;53.334;6.534;2022-08-19T05:05:48;13.70;99.90
53802;DHT22;39709;53.334;6.534;2022-08-19T05:08:17;13.90;99.90
53802;DHT22;39709;53.334;6.534;2022-08-19T05:10:48;14.00;99.90
53802;DHT22;39709;53.334;6.534;2022-08-19T05:13:16;14.30;99.90
53802;DHT22;39709;53.334;6.534;2022-08-19T05:15:42;14.40;99.90
53802;DHT22;39709;53.334;6.534;2022-08-19T05:18:09;14.20;99.90
53802;DHT22;39709;53.334;6.534;2022-08-19T05:20:53;14.20;99.90
53802;DHT22;39709;53.334;6.534;2022-08-19T05:23:37;14.60;99.90
53802;DHT22;39709;53.334;6.534;2022-08-19T05:26:04;14.80;99.90
53802;DHT22;39709;53.334;6.534;2022-08-19T05:28:32;14.80;99.90
53802;DHT22;39709;53.334;6.534;2022-08-19T05:30:58;15.10;99.90
53802;DHT22;39709;53.334;6.534;2022-08-19T05:33:24;14.80;99.90
53802;DHT22;39709;53.334;6.534;2022-08-19T05:35:49;14.90;99.90
53802;DHT22;39709;53.334;6.534;2022-08-19T05:38:17;15.30;99.90
53802;DHT22;39709;53.334;6.534;2022-08-19T05:40:43;15.50;99.90
53802;DHT22;39709;53.334;6.534;2022-08-19T05:43:14;15.50;99.90
53802;DHT22;39709;53.334;6.534;2022-08-19T05:45:43;15.10;99.90
53802;DHT22;39709;53.334;6.534;2022-08-19T05:48:12;15.70;99.90
53802;DHT22;39709;53.334;6.534;2022-08-19T05:50:40;15.70;99.90
53802;DHT22;39709;53.334;6.534;2022-08-19T05:53:07;15.40;99.90
53802;DHT22;39709;53.334;6.534;2022-08-19T05:55:34;15.90;99.90
53802;DHT22;39709;53.334;6.534;2022-08-19T05:58:00;16.00;99.90
53802;DHT22;39709;53.334;6.534;2022-08-19T06:00:27;15.60;99.90
53802;DHT22;39709;53.334;6.534;2022-08-19T06:02:53;15.80;99.90
53802;DHT22;39709;53.334;6.534;2022-08-19T06:05:20;15.70;99.90
53802;DHT22;39709;53.334;6.534;2022-08-19T06:07:45;16.30;99.90
53802;DHT22;39709;53.334;6.534;2022-08-19T06:10:13;15.90;99.90
53802;DHT22;39709;53.334;6.534;2022-08-19T06:12:39;16.30;99.90
53802;DHT22;39709;53.334;6.534;2022-08-19T06:15:10;16.40;99.90
53802;DHT22;39709;53.334;6.534;2022-08-19T06:17:36;16.10;99.90
53802;DHT22;39709;53.334;6.534;2022-08-19T06:20:08;16.50;99.90
53802;DHT22;39709;53.334;6.534;2022-08-19T06:22:47;16.70;99.90
53802;DHT22;39709;53.334;6.534;2022-08-19T06:25:15;16.40;99.90
53802;DHT22;39709;53.334;6.534;2022-08-19T06:27:43;16.90;99.90
53802;DHT22;39709;53.334;6.534;2022-08-19T06:30:09;17.10;99.90
53802;DHT22;39709;53.334;6.534;2022-08-19T06:32:35;17.00;99.90
53802;DHT22;39709;53.334;6.534;2022-08-19T06:35:01;17.20;99.90
53802;DHT22;39709;53.334;6.534;2022-08-19T06:37:26;17.00;99.90
53802;DHT22;39709;53.334;6.534;2022-08-19T06:39:52;17.10;99.90
53802;DHT22;39709;53.334;6.534;2022-08-19T06:42:18;17.60;99.90
53802;DHT22;39709;53.334;6.534;2022-08-19T06:44:46;17.30;99.90
53802;DHT22;39709;53.334;6.534;2022-08-19T06:47:14;17.60;99.90
53802;DHT22;39709;53.334;6.534;2022-08-19T06:49:41;17.60;99.90
53802;DHT22;39709;53.334;6.534;2022-08-19T06:52:06;17.90;99.90
53802;DHT22;39709;53.334;6.534;2022-08-19T06:54:32;17.60;99.90
53802;DHT22;39709;53.334;6.534;2022-08-19T06:57:00;17.70;92.30
53802;DHT22;39709;53.334;6.534;2022-08-19T06:59:30;18.00;90.20
53802;DHT22;39709;53.334;6.534;2022-08-19T07:02:00;17.90;90.30
53802;DHT22;39709;53.334;6.534;2022-08-19T07:04:28;18.30;79.10
53802;DHT22;39709;53.334;6.534;2022-08-19T07:07:15;18.50;68.80
53802;DHT22;39709;53.334;6.534;2022-08-19T07:09:44;18.60;47.90
53802;DHT22;39709;53.334;6.534;2022-08-19T07:12:12;18.40;42.80
53802;DHT22;39709;53.334;6.534;2022-08-19T07:14:39;18.60;11.10
53802;DHT22;39709;53.334;6.534;2022-08-19T07:17:10;18.70;7.10
53802;DHT22;39709;53.334;6.534;2022-08-19T07:19:37;19.00;16.80
53802;DHT22;39709;53.334;6.534;2022-08-19T07:22:05;19.10;40.80
53802;DHT22;39709;53.334;6.534;2022-08-19T07:24:32;19.10;13.20
53802;DHT22;39709;53.334;6.534;2022-08-19T07:27:01;19.20;1.00
53802;DHT22;39709;53.334;6.534;2022-08-19T07:29:29;19.40;1.00
53802;DHT22;39709;53.334;6.534;2022-08-19T07:31:55;19.30;1.00
53802;DHT22;39709;53.334;6.534;2022-08-19T07:34:23;19.50;1.00
53802;DHT22;39709;53.334;6.534;2022-08-19T07:36:49;19.60;1.00
53802;DHT22;39709;53.334;6.534;2022-08-19T07:39:24;19.70;1.00
53802;DHT22;39709;53.334;6.534;2022-08-19T07:41:50;19.80;1.00
53802;DHT22;39709;53.334;6.534;2022-08-19T07:44:18;19.90;1.00
53802;DHT22;39709;53.334;6.534;2022-08-19T07:46:48;20.00;1.00
53802;DHT22;39709;53.334;6.534;2022-08-19T07:49:15;20.10;1.00
53802;DHT22;39709;53.334;6.534;2022-08-19T07:51:50;20.10;1.00
53802;DHT22;39709;53.334;6.534;2022-08-19T07:54:17;20.20;1.00
53802;DHT22;39709;53.334;6.534;2022-08-19T07:56:42;20.20;1.00
53802;DHT22;39709;53.334;6.534;2022-08-19T07:59:08;20.20;1.00
53802;DHT22;39709;53.334;6.534;2022-08-19T08:01:35;20.50;1.00
53802;DHT22;39709;53.334;6.534;2022-08-19T08:04:01;20.50;1.00
53802;DHT22;39709;53.334;6.534;2022-08-19T08:06:45;20.50;1.00
53802;DHT22;39709;53.334;6.534;2022-08-19T08:09:35;20.60;1.00
53802;DHT22;39709;53.334;6.534;2022-08-19T08:12:13;20.70;1.00
53802;DHT22;39709;53.334;6.534;2022-08-19T08:14:47;20.80;1.00
53802;DHT22;39709;53.334;6.534;2022-08-19T08:17:15;20.90;1.00
53802;DHT22;39709;53.334;6.534;2022-08-19T08:19:41;20.90;1.00
53802;DHT22;39709;53.334;6.534;2022-08-19T08:22:08;21.00;1.00
53802;DHT22;39709;53.334;6.534;2022-08-19T08:24:54;21.10;1.00
53802;DHT22;39709;53.334;6.534;2022-08-19T08:27:23;21.20;1.00
53802;DHT22;39709;53.334;6.534;2022-08-19T08:29:49;21.30;1.00
53802;DHT22;39709;53.334;6.534;2022-08-19T08:32:15;21.40;1.00
53802;DHT22;39709;53.334;6.534;2022-08-19T08:34:41;21.50;1.00
53802;DHT22;39709;53.334;6.534;2022-08-19T08:37:07;21.60;1.00
53802;DHT22;39709;53.334;6.534;2022-08-19T08:39:33;21.70;1.00
53802;DHT22;39709;53.334;6.534;2022-08-19T08:42:27;21.70;1.00
53802;DHT22;39709;53.334;6.534;2022-08-19T08:44:59;21.80;1.00
53802;DHT22;39709;53.334;6.534;2022-08-19T08:47:26;21.80;1.00
53802;DHT22;39709;53.334;6.534;2022-08-19T08:50:21;21.90;1.00
53802;DHT22;39709;53.334;6.534;2022-08-19T08:52:48;21.90;1.00
53802;DHT22;39709;53.334;6.534;2022-08-19T08:55:21;22.00;1.00
53802;DHT22;39709;53.334;6.534;2022-08-19T09:02:55;22.20;1.00
53802;DHT22;39709;53.334;6.534;2022-08-19T09:05:24;22.20;1.00
53802;DHT22;39709;53.334;6.534;2022-08-19T09:10:44;22.40;1.00
53802;DHT22;39709;53.334;6.534;2022-08-19T09:15:52;22.50;1.00
53802;DHT22;39709;53.334;6.534;2022-08-19T09:18:18;22.70;1.00
53802;DHT22;39709;53.334;6.534;2022-08-19T09:20:45;22.70;1.00
53802;DHT22;39709;53.334;6.534;2022-08-19T09:23:12;22.80;1.00
53802;DHT22;39709;53.334;6.534;2022-08-19T09:25:38;22.80;1.00
53802;DHT22;39709;53.334;6.534;2022-08-19T09:28:05;23.00;1.00
53802;DHT22;39709;53.334;6.534;2022-08-19T09:30:34;23.00;1.00
53802;DHT22;39709;53.334;6.534;2022-08-19T09:33:05;23.10;1.00
53802;DHT22;39709;53.334;6.534;2022-08-19T09:35:32;23.10;1.00
53802;DHT22;39709;53.334;6.534;2022-08-19T09:37:58;23.20;1.00
53802;DHT22;39709;53.334;6.534;2022-08-19T09:40:25;23.30;1.00
53802;DHT22;39709;53.334;6.534;2022-08-19T09:42:51;23.40;1.00
53802;DHT22;39709;53.334;6.534;2022-08-19T09:45:19;23.40;1.00
53802;DHT22;39709;53.334;6.534;2022-08-19T09:47:48;23.40;1.00
53802;DHT22;39709;53.334;6.534;2022-08-19T09:50:14;23.50;1.00
53802;DHT22;39709;53.334;6.534;2022-08-19T09:52:40;23.60;1.00
53802;DHT22;39709;53.334;6.534;2022-08-19T09:55:09;23.60;1.00
53802;DHT22;39709;53.334;6.534;2022-08-19T09:57:35;23.70;1.00
53802;DHT22;39709;53.334;6.534;2022-08-19T10:00:03;23.70;1.00
53802;DHT22;39709;53.334;6.534;2022-08-19T10:02:29;23.70;1.00
53802;DHT22;39709;53.334;6.534;2022-08-19T10:04:54;23.70;1.00
53802;DHT22;39709;53.334;6.534;2022-08-19T10:07:38;23.80;1.00
53802;DHT22;39709;53.334;6.534;2022-08-19T10:10:05;23.80;1.00
53802;DHT22;39709;53.334;6.534;2022-08-19T10:12:32;23.80;1.00
53802;DHT22;39709;53.334;6.534;2022-08-19T10:14:59;23.80;1.00
53802;DHT22;39709;53.334;6.534;2022-08-19T10:17:26;24.00;1.00
53802;DHT22;39709;53.334;6.534;2022-08-19T10:19:52;24.00;1.00
53802;DHT22;39709;53.334;6.534;2022-08-19T10:22:18;24.00;1.00
53802;DHT22;39709;53.334;6.534;2022-08-19T10:24:45;24.10;1.00
53802;DHT22;39709;53.334;6.534;2022-08-19T10:27:11;24.20;1.00
53802;DHT22;39709;53.334;6.534;2022-08-19T10:29:38;24.30;1.00
53802;DHT22;39709;53.334;6.534;2022-08-19T10:32:07;24.20;1.00
53802;DHT22;39709;53.334;6.534;2022-08-19T10:34:35;24.30;1.00
53802;DHT22;39709;53.334;6.534;2022-08-19T10:37:02;24.30;1.00
53802;DHT22;39709;53.334;6.534;2022-08-19T10:39:32;24.40;1.00
53802;DHT22;39709;53.334;6.534;2022-08-19T10:41:59;24.40;1.00
53802;DHT22;39709;53.334;6.534;2022-08-19T10:44:25;24.40;1.00
53802;DHT22;39709;53.334;6.534;2022-08-19T10:46:51;24.40;1.00
53802;DHT22;39709;53.334;6.534;2022-08-19T10:49:17;24.50;1.00
53802;DHT22;39709;53.334;6.534;2022-08-19T10:51:45;24.40;1.00
53802;DHT22;39709;53.334;6.534;2022-08-19T10:54:29;24.50;1.00
53802;DHT22;39709;53.334;6.534;2022-08-19T10:57:14;24.60;1.00
53802;DHT22;39709;53.334;6.534;2022-08-19T10:59:40;24.60;1.00
53802;DHT22;39709;53.334;6.534;2022-08-19T11:02:09;24.50;1.00
53802;DHT22;39709;53.334;6.534;2022-08-19T11:04:36;24.60;1.00
53802;DHT22;39709;53.334;6.534;2022-08-19T11:07:04;24.70;1.00
53802;DHT22;39709;53.334;6.534;2022-08-19T11:09:30;24.50;1.00
53802;DHT22;39709;53.334;6.534;2022-08-19T11:11:56;24.60;1.00
53802;DHT22;39709;53.334;6.534;2022-08-19T11:14:23;24.60;1.00
53802;DHT22;39709;53.334;6.534;2022-08-19T11:16:51;24.70;1.00
53802;DHT22;39709;53.334;6.534;2022-08-19T11:19:21;24.90;1.00
53802;DHT22;39709;53.334;6.534;2022-08-19T11:21:50;25.00;1.00
53802;DHT22;39709;53.334;6.534;2022-08-19T11:24:21;25.10;1.00
53802;DHT22;39709;53.334;6.534;2022-08-19T11:26:49;25.10;1.00
53802;DHT22;39709;53.334;6.534;2022-08-19T11:29:16;25.00;1.00
53802;DHT22;39709;53.334;6.534;2022-08-19T11:31:44;24.90;1.00
53802;DHT22;39709;53.334;6.534;2022-08-19T11:34:13;24.90;1.00
53802;DHT22;39709;53.334;6.534;2022-08-19T11:36:43;24.90;1.00
53802;DHT22;39709;53.334;6.534;2022-08-19T11:39:11;25.10;1.00
53802;DHT22;39709;53.334;6.534;2022-08-19T11:41:37;25.20;1.00
53802;DHT22;39709;53.334;6.534;2022-08-19T11:44:03;25.40;1.00
53802;DHT22;39709;53.334;6.534;2022-08-19T11:46:30;25.50;1.00
53802;DHT22;39709;53.334;6.534;2022-08-19T11:48:57;25.50;1.00
53802;DHT22;39709;53.334;6.534;2022-08-19T11:51:25;25.60;1.00
53802;DHT22;39709;53.334;6.534;2022-08-19T11:53:53;25.60;1.00
53802;DHT22;39709;53.334;6.534;2022-08-19T11:56:19;25.70;1.00
53802;DHT22;39709;53.334;6.534;2022-08-19T11:58:46;25.80;1.00
53802;DHT22;39709;53.334;6.534;2022-08-19T12:01:14;26.00;1.00
53802;DHT22;39709;53.334;6.534;2022-08-19T12:03:48;26.10;1.00
53802;DHT22;39709;53.334;6.534;2022-08-19T12:06:17;26.20;1.00
53802;DHT22;39709;53.334;6.534;2022-08-19T12:08:44;26.30;1.00
53802;DHT22;39709;53.334;6.534;2022-08-19T12:11:11;26.20;1.00
53802;DHT22;39709;53.334;6.534;2022-08-19T12:13:38;26.10;1.00
53802;DHT22;39709;53.334;6.534;2022-08-19T12:16:24;26.00;1.00
53802;DHT22;39709;53.334;6.534;2022-08-19T12:18:51;25.90;1.00
53802;DHT22;39709;53.334;6.534;2022-08-19T12:21:20;26.00;1.00
53802;DHT22;39709;53.334;6.534;2022-08-19T12:23:48;26.10;1.00
53802;DHT22;39709;53.334;6.534;2022-08-19T12:26:15;26.20;1.00
53802;DHT22;39709;53.334;6.534;2022-08-19T12:28:42;26.30;1.00
53802;DHT22;39709;53.334;6.534;2022-08-19T12:31:08;26.30;1.00
53802;DHT22;39709;53.334;6.534;2022-08-19T12:33:34;26.30;1.00
53802;DHT22;39709;53.334;6.534;2022-08-19T12:36:05;26.30;1.00
53802;DHT22;39709;53.334;6.534;2022-08-19T12:38:32;26.30;1.00
53802;DHT22;39709;53.334;6.534;2022-08-19T12:40:58;26.30;1.00
53802;DHT22;39709;53.334;6.534;2022-08-19T12:43:24;26.40;1.00
53802;DHT22;39709;53.334;6.534;2022-08-19T12:45:50;26.40;1.00
53802;DHT22;39709;53.334;6.534;2022-08-19T12:48:15;26.40;1.00
53802;DHT22;39709;53.334;6.534;2022-08-19T12:50:43;26.40;1.00
53802;DHT22;39709;53.334;6.534;2022-08-19T12:53:11;26.30;1.00
53802;DHT22;39709;53.334;6.534;2022-08-19T12:55:37;26.10;1.00
53802;DHT22;39709;53.334;6.534;2022-08-19T12:58:03;25.30;1.00
53802;DHT22;39709;53.334;6.534;2022-08-19T13:00:29;24.80;1.00
53802;DHT22;39709;53.334;6.534;2022-08-19T13:02:58;24.30;1.00
53802;DHT22;39709;53.334;6.534;2022-08-19T13:05:28;24.10;1.00
53802;DHT22;39709;53.334;6.534;2022-08-19T13:07:56;23.90;1.00
53802;DHT22;39709;53.334;6.534;2022-08-19T13:10:25;23.60;1.00
53802;DHT22;39709;53.334;6.534;2022-08-19T13:12:53;23.40;1.00
53802;DHT22;39709;53.334;6.534;2022-08-19T13:15:21;23.30;1.00
53802;DHT22;39709;53.334;6.534;2022-08-19T13:17:48;23.10;1.00
53802;DHT22;39709;53.334;6.534;2022-08-19T13:20:16;23.10;1.00
53802;DHT22;39709;53.334;6.534;2022-08-19T13:22:43;23.10;6.80
53802;DHT22;39709;53.334;6.534;2022-08-19T13:25:10;23.10;1.70
53802;DHT22;39709;53.334;6.534;2022-08-19T13:27:37;23.10;1.00
53802;DHT22;39709;53.334;6.534;2022-08-19T13:30:04;23.30;1.00
53802;DHT22;39709;53.334;6.534;2022-08-19T13:33:06;23.30;1.00
53802;DHT22;39709;53.334;6.534;2022-08-19T13:35:45;23.40;1.00
53802;DHT22;39709;53.334;6.534;2022-08-19T13:38:12;23.40;1.00
53802;DHT22;39709;53.334;6.534;2022-08-19T13:40:39;23.30;1.00
53802;DHT22;39709;53.334;6.534;2022-08-19T13:43:05;23.30;1.00
53802;DHT22;39709;53.334;6.534;2022-08-19T13:45:33;23.40;1.00
53802;DHT22;39709;53.334;6.534;2022-08-19T13:48:00;23.50;1.00
53802;DHT22;39709;53.334;6.534;2022-08-19T13:50:30;23.50;1.00
53802;DHT22;39709;53.334;6.534;2022-08-19T13:52:57;23.50;1.00
53802;DHT22;39709;53.334;6.534;2022-08-19T13:55:24;23.30;1.00
53802;DHT22;39709;53.334;6.534;2022-08-19T13:57:55;23.40;1.00
53802;DHT22;39709;53.334;6.534;2022-08-19T14:00:23;23.30;1.00
53802;DHT22;39709;53.334;6.534;2022-08-19T14:02:53;23.30;1.00
53802;DHT22;39709;53.334;6.534;2022-08-19T14:05:20;23.40;1.00
53802;DHT22;39709;53.334;6.534;2022-08-19T14:07:46;23.40;1.00
53802;DHT22;39709;53.334;6.534;2022-08-19T14:10:14;23.40;1.00
53802;DHT22;39709;53.334;6.534;2022-08-19T14:12:41;23.30;1.00
53802;DHT22;39709;53.334;6.534;2022-08-19T14:15:09;23.20;1.00
53802;DHT22;39709;53.334;6.534;2022-08-19T14:17:41;23.30;1.00
53802;DHT22;39709;53.334;6.534;2022-08-19T14:20:08;23.30;1.00
53802;DHT22;39709;53.334;6.534;2022-08-19T14:22:37;23.40;1.00
53802;DHT22;39709;53.334;6.534;2022-08-19T14:25:04;23.30;1.00
53802;DHT22;39709;53.334;6.534;2022-08-19T14:27:33;23.20;1.00
53802;DHT22;39709;53.334;6.534;2022-08-19T14:29:58;23.40;1.00
53802;DHT22;39709;53.334;6.534;2022-08-19T14:32:24;23.60;1.00
53802;DHT22;39709;53.334;6.534;2022-08-19T14:34:53;23.90;1.00
53802;DHT22;39709;53.334;6.534;2022-08-19T14:37:18;23.80;1.00
53802;DHT22;39709;53.334;6.534;2022-08-19T14:39:44;23.90;1.00
53802;DHT22;39709;53.334;6.534;2022-08-19T14:42:10;23.80;1.00
53802;DHT22;39709;53.334;6.534;2022-08-19T14:44:37;23.80;1.00
53802;DHT22;39709;53.334;6.534;2022-08-19T14:47:04;23.80;1.00
53802;DHT22;39709;53.334;6.534;2022-08-19T14:49:32;23.80;1.00
53802;DHT22;39709;53.334;6.534;2022-08-19T14:51:58;24.00;1.00
53802;DHT22;39709;53.334;6.534;2022-08-19T14:54:24;23.90;1.00
53802;DHT22;39709;53.334;6.534;2022-08-19T14:56:50;24.00;1.00
53802;DHT22;39709;53.334;6.534;2022-08-19T14:59:16;24.20;1.00
53802;DHT22;39709;53.334;6.534;2022-08-19T15:01:41;24.50;1.00
53802;DHT22;39709;53.334;6.534;2022-08-19T15:04:07;24.20;1.00
53802;DHT22;39709;53.334;6.534;2022-08-19T15:06:33;24.10;1.00
53802;DHT22;39709;53.334;6.534;2022-08-19T15:09:00;23.80;1.00
53802;DHT22;39709;53.334;6.534;2022-08-19T15:11:27;23.70;1.00
53802;DHT22;39709;53.334;6.534;2022-08-19T15:13:57;23.60;1.00
53802;DHT22;39709;53.334;6.534;2022-08-19T15:16:23;23.60;1.00
53802;DHT22;39709;53.334;6.534;2022-08-19T15:18:53;23.50;1.00
53802;DHT22;39709;53.334;6.534;2022-08-19T15:21:20;23.60;1.00
53802;DHT22;39709;53.334;6.534;2022-08-19T15:23:46;23.40;1.00
53802;DHT22;39709;53.334;6.534;2022-08-19T15:26:14;23.60;1.00
53802;DHT22;39709;53.334;6.534;2022-08-19T15:28:41;23.60;1.00
53802;DHT22;39709;53.334;6.534;2022-08-19T15:31:07;23.60;1.00
53802;DHT22;39709;53.334;6.534;2022-08-19T15:33:35;23.70;1.00
53802;DHT22;39709;53.334;6.534;2022-08-19T15:36:05;23.50;1.00
53802;DHT22;39709;53.334;6.534;2022-08-19T15:38:32;23.20;1.00
53802;DHT22;39709;53.334;6.534;2022-08-19T15:41:00;23.00;1.00
53802;DHT22;39709;53.334;6.534;2022-08-19T15:43:46;22.90;1.00
53802;DHT22;39709;53.334;6.534;2022-08-19T15:46:20;22.80;1.00
53802;DHT22;39709;53.334;6.534;2022-08-19T15:48:47;22.60;1.00
53802;DHT22;39709;53.334;6.534;2022-08-19T15:51:13;22.50;1.00
53802;DHT22;39709;53.334;6.534;2022-08-19T15:53:40;22.30;1.00
53802;DHT22;39709;53.334;6.534;2022-08-19T15:56:09;22.10;1.00
53802;DHT22;39709;53.334;6.534;2022-08-19T15:58:35;22.00;1.00
53802;DHT22;39709;53.334;6.534;2022-08-19T16:01:19;22.00;1.00
53802;DHT22;39709;53.334;6.534;2022-08-19T16:04:04;21.80;7.00